Terminal Aerodrome Forecast
Issued by NWS Mt. Holly, NJ

Home | Current Version | Previous Version | Text Only | Print | Product List | Glossary On
Versions: 1 2 3 4 5 6 7 8 9 10 11 12 13 14
000
FTUS41 KPHI 210100 AAA
TAFTTN
TAF AMD
KTTN 210101Z 2101/2124 17007KT P6SM SCT050 BKN150
     FM210400 14004KT P6SM BKN040
     FM211700 19007KT P6SM VCSH SCT040 BKN100
     FM212100 16007KT 6SM -SHRA BKN040=

USA.gov is the U.S. government's official web portal to all federal, state and local government web resources and services.